Time;durP1;ratioP1;P1;durP2;ratioP2;P2;SDS_P1;SDS_P2;PMS_P1;PMS_P2;Temp;Humidity;BMP_temperature;BMP_pressure;BME280_temperature;BME280_humidity;BME280_pressure;Samples;Min_cycle;Max_cycle;Signal;HPM_P1;HPM_P2
2022/03/04 00:00:38;;;;;;;76.20;41.20;;;;;;;0.90;71.52;100642.36;88298;1271;90070;-65
2022/03/04 00:02:52;;;;;;;58.90;32.50;;;;;;;0.90;71.55;100642.41;88298;1271;95791;-67
2022/03/04 00:05:01;;;;;;;50.70;30.20;;;;;;;0.87;71.74;100639.95;88314;1270;76390;-64
2022/03/04 00:07:11;;;;;;;46.80;26.80;;;;;;;0.86;71.62;100645.02;88316;1270;80655;-67
2022/03/04 00:09:22;;;;;;;46.40;27.10;;;;;;;0.81;71.68;100647.22;88322;1270;98653;-66
2022/03/04 00:11:35;;;;;;;48.70;26.60;;;;;;;0.81;71.57;100649.14;88317;1270;88406;-64
2022/03/04 00:13:45;;;;;;;45.50;27.60;;;;;;;0.83;71.85;100647.88;88326;1270;95249;-63
2022/03/04 00:15:55;;;;;;;43.60;26.80;;;;;;;0.79;72.01;100642.58;88335;1270;80218;-74
2022/03/04 00:18:08;;;;;;;44.60;26.40;;;;;;;0.79;72.03;100642.73;88243;1273;82979;-77
2022/03/04 00:20:18;;;;;;;43.90;25.70;;;;;;;0.83;71.95;100646.14;88307;1270;98552;-64
2022/03/04 00:22:27;;;;;;;44.20;25.70;;;;;;;0.87;72.13;100648.16;88307;1270;88016;-63
2022/03/04 00:24:40;;;;;;;42.80;26.10;;;;;;;0.88;71.99;100648.58;88335;1270;93803;-63
2022/03/04 00:26:50;;;;;;;43.00;26.00;;;;;;;0.92;72.24;100639.42;88328;1270;77640;-63
2022/03/04 00:29:00;;;;;;;40.20;25.00;;;;;;;0.96;72.05;100640.33;88311;1274;81866;-66
2022/03/04 00:31:11;;;;;;;42.00;26.00;;;;;;;0.96;72.14;100641.53;88349;1270;98282;-77
2022/03/04 00:33:20;;;;;;;45.20;27.20;;;;;;;0.98;72.14;100641.73;88371;1270;88555;-76
2022/03/04 00:35:30;;;;;;;43.60;27.10;;;;;;;1.00;72.14;100635.90;88314;1270;94792;-76
2022/03/04 00:37:40;;;;;;;46.40;27.90;;;;;;;0.97;72.13;100635.58;88384;1270;77105;-76
2022/03/04 00:39:53;;;;;;;53.50;33.10;;;;;;;0.94;72.17;100637.63;88320;1273;82734;-75
2022/03/04 00:42:03;;;;;;;47.70;30.00;;;;;;;0.94;72.10;100633.91;88312;1274;97405;-75
2022/03/04 00:44:13;;;;;;;44.40;26.30;;;;;;;0.90;72.38;100634.39;88345;1270;89722;-77
2022/03/04 00:46:22;;;;;;;47.70;28.30;;;;;;;0.89;72.30;100634.13;88358;1270;94845;-75
2022/03/04 00:48:32;;;;;;;47.40;30.20;;;;;;;0.91;72.22;100634.17;88310;1270;81115;-75
2022/03/04 00:50:42;;;;;;;48.60;30.10;;;;;;;0.92;72.48;100634.61;88348;1270;82431;-65
2022/03/04 00:52:57;;;;;;;50.60;29.60;;;;;;;0.91;72.55;100638.00;88297;1270;95786;-63
2022/03/04 00:55:09;;;;;;;53.60;33.70;;;;;;;0.95;72.65;100631.91;88362;1270;90241;-63
2022/03/04 00:57:18;;;;;;;54.50;31.50;;;;;;;0.99;72.63;100633.14;88334;1270;94233;-65
2022/03/04 00:59:28;;;;;;;65.50;39.90;;;;;;;1.03;72.58;100629.26;88336;1270;79849;-66
2022/03/04 01:01:38;;;;;;;61.40;38.10;;;;;;;1.04;72.66;100633.77;88336;1270;81739;-64
2022/03/04 01:03:49;;;;;;;67.70;40.20;;;;;;;1.04;72.66;100632.21;88233;1273;98824;-65
2022/03/04 01:05:59;;;;;;;65.60;38.50;;;;;;;1.05;72.60;100627.54;88320;1273;88313;-75
2022/03/04 01:08:11;;;;;;;53.00;32.30;;;;;;;1.02;72.61;100624.58;88342;1270;95356;-78
2022/03/04 01:10:20;;;;;;;51.00;31.60;;;;;;;1.01;72.62;100625.54;88367;1270;77373;-75
2022/03/04 01:12:30;;;;;;;47.90;28.60;;;;;;;0.98;72.60;100618.12;88321;1274;82466;-76
2022/03/04 01:14:44;;;;;;;48.90;29.30;;;;;;;0.97;72.63;100625.46;88348;1270;99039;-76
2022/03/04 01:16:53;;;;;;;51.90;31.70;;;;;;;1.00;72.75;100630.96;88334;1270;89007;-76
2022/03/04 01:19:04;;;;;;;53.70;32.10;;;;;;;0.97;72.71;100632.25;88355;1271;94109;-74
2022/03/04 01:21:14;;;;;;;50.00;29.00;;;;;;;0.97;72.95;100629.39;88331;1270;80135;-76
2022/03/04 01:23:25;;;;;;;45.30;28.30;;;;;;;0.99;72.92;100634.92;88331;1270;82451;-75
2022/03/04 01:25:34;;;;;;;48.90;29.60;;;;;;;0.98;73.03;100630.19;88359;1270;99123;-64
2022/03/04 01:27:44;;;;;;;67.60;36.30;;;;;;;1.02;73.00;100626.54;88323;1270;87771;-62
2022/03/04 01:29:53;;;;;;;59.00;33.80;;;;;;;1.06;73.12;100627.81;88349;1270;95180;-63
2022/03/04 01:32:04;;;;;;;55.40;31.40;;;;;;;1.12;72.94;100626.37;88280;1274;80634;-65
2022/03/04 01:34:14;;;;;;;51.90;28.90;;;;;;;1.11;73.14;100620.05;88323;1273;83102;-63
2022/03/04 01:36:27;;;;;;;51.10;29.50;;;;;;;1.12;73.04;100621.25;88313;1271;98519;-63
2022/03/04 01:38:38;;;;;;;48.50;28.70;;;;;;;1.15;73.00;100623.27;88280;1273;89104;-64
2022/03/04 01:40:48;;;;;;;45.00;27.30;;;;;;;1.15;73.07;100624.55;88353;1271;96154;-77
2022/03/04 01:42:57;;;;;;;53.30;30.30;;;;;;;1.11;73.18;100626.83;88373;1270;77630;-76
2022/03/04 01:45:10;;;;;;;48.10;29.60;;;;;;;1.09;73.27;100629.81;88373;1270;83089;-77
2022/03/04 01:47:19;;;;;;;52.40;30.60;;;;;;;1.11;73.08;100626.48;88364;1270;99309;-77
2022/03/04 01:49:28;;;;;;;57.00;33.80;;;;;;;1.11;73.25;100628.42;88350;1271;88553;-65
2022/03/04 01:51:38;;;;;;;52.10;32.50;;;;;;;1.09;73.40;100626.33;88287;1270;95347;-64
2022/03/04 01:53:47;;;;;;;52.10;29.60;;;;;;;1.10;73.46;100625.48;88295;1271;80051;-63
2022/03/04 01:55:59;;;;;;;47.40;29.40;;;;;;;1.09;73.47;100621.54;88339;1270;82177;-63
2022/03/04 01:58:09;;;;;;;43.00;27.80;;;;;;;1.10;73.49;100621.39;88303;1270;98940;-63
2022/03/04 02:00:19;;;;;;;45.30;26.10;;;;;;;1.16;73.60;100624.70;88297;1274;87303;-63
2022/03/04 02:02:28;;;;;;;45.40;27.60;;;;;;;1.15;73.63;100627.20;88304;1270;95603;-63
2022/03/04 02:04:41;;;;;;;46.50;28.70;;;;;;;1.17;73.70;100627.58;88260;1272;81022;-76
2022/03/04 02:06:51;;;;;;;52.70;31.70;;;;;;;1.17;73.79;100626.88;88358;1270;82977;-75
2022/03/04 02:09:01;;;;;;;73.20;37.10;;;;;;;1.19;73.76;100624.95;88361;1270;97900;-76
2022/03/04 02:11:10;;;;;;;91.20;43.60;;;;;;;1.21;73.88;100625.16;88337;1270;88980;-64
2022/03/04 02:13:20;;;;;;;104.80;46.10;;;;;;;1.22;73.94;100628.41;88294;1274;95495;-63
2022/03/04 02:15:30;;;;;;;88.70;42.60;;;;;;;1.26;73.88;100629.52;88324;1270;78073;-63
2022/03/04 02:17:40;;;;;;;85.30;37.80;;;;;;;1.28;73.96;100631.33;88287;1274;82185;-64
2022/03/04 02:19:57;;;;;;;65.20;34.10;;;;;;;1.27;73.82;100631.23;88354;1270;99929;-74
2022/03/04 02:22:08;;;;;;;108.70;47.80;;;;;;;1.23;74.05;100630.10;88336;1270;87969;-75
2022/03/04 02:24:18;;;;;;;106.40;45.20;;;;;;;1.20;74.03;100628.75;88368;1270;95513;-76
2022/03/04 02:26:28;;;;;;;97.20;41.60;;;;;;;1.19;74.05;100627.59;88368;1270;79088;-75
2022/03/04 02:28:37;;;;;;;73.20;34.40;;;;;;;1.24;73.99;100629.05;88311;1273;82563;-75
2022/03/04 02:30:47;;;;;;;68.00;34.00;;;;;;;1.25;74.14;100628.71;88348;1270;98504;-76
2022/03/04 02:32:56;;;;;;;61.40;30.80;;;;;;;1.20;74.23;100626.98;88359;1271;88467;-75
2022/03/04 02:35:06;;;;;;;51.70;30.30;;;;;;;1.19;74.34;100626.51;88312;1270;94732;-76
2022/03/04 02:37:16;;;;;;;44.50;27.10;;;;;;;1.23;74.40;100632.48;88295;1274;78747;-75
2022/03/04 02:39:29;;;;;;;45.40;26.90;;;;;;;1.23;74.30;100633.54;88344;1270;81375;-66
2022/03/04 02:41:39;;;;;;;41.70;26.20;;;;;;;1.23;74.54;100632.45;88277;1273;98940;-64
2022/03/04 02:43:49;;;;;;;37.40;24.40;;;;;;;1.29;74.47;100633.04;88317;1271;88664;-63
2022/03/04 02:46:00;;;;;;;45.00;26.40;;;;;;;1.34;74.60;100634.70;88304;1271;95978;-63
2022/03/04 02:48:09;;;;;;;40.80;26.60;;;;;;;1.32;74.58;100634.88;88303;1272;80112;-63
2022/03/04 02:50:18;;;;;;;41.30;26.60;;;;;;;1.34;74.53;100639.73;88283;1274;83854;-63
2022/03/04 02:52:28;;;;;;;41.90;25.70;;;;;;;1.34;74.54;100640.02;88314;1271;98548;-63
2022/03/04 02:54:37;;;;;;;41.10;24.50;;;;;;;1.34;74.54;100640.96;88311;1272;89341;-74
2022/03/04 02:56:46;;;;;;;40.50;25.60;;;;;;;1.34;74.59;100638.95;88308;1274;96215;-75
2022/03/04 02:58:55;;;;;;;38.90;24.50;;;;;;;1.34;74.61;100638.77;88309;1270;79607;-76
2022/03/04 03:01:05;;;;;;;40.90;23.80;;;;;;;1.31;74.74;100637.83;88288;1271;82087;-63
2022/03/04 03:03:17;;;;;;;41.80;24.00;;;;;;;1.29;74.75;100641.00;88288;1273;99555;-64
2022/03/04 03:05:30;;;;;;;41.50;25.30;;;;;;;1.28;74.80;100636.84;88322;1271;88041;-63
2022/03/04 03:07:40;;;;;;;40.90;26.40;;;;;;;1.27;74.94;100634.73;88293;1273;94255;-63
2022/03/04 03:09:50;;;;;;;38.30;23.80;;;;;;;1.25;74.93;100637.75;88214;1274;78653;-76
2022/03/04 03:12:00;;;;;;;38.50;24.80;;;;;;;1.27;75.02;100633.14;88303;1271;82380;-75
2022/03/04 03:14:09;;;;;;;39.10;25.20;;;;;;;1.31;75.00;100632.64;88294;1273;98278;-75
2022/03/04 03:16:19;;;;;;;42.30;24.20;;;;;;;1.34;75.16;100629.71;88309;1273;88702;-76
2022/03/04 03:18:33;;;;;;;39.10;24.80;;;;;;;1.35;75.06;100631.30;88309;1274;95037;-73
2022/03/04 03:20:43;;;;;;;34.30;23.30;;;;;;;1.36;75.18;100634.16;88292;1273;76903;-75
2022/03/04 03:22:52;;;;;;;36.70;23.20;;;;;;;1.38;75.33;100635.77;88255;1273;81670;-76
2022/03/04 03:25:01;;;;;;;38.50;25.20;;;;;;;1.39;75.16;100638.60;88287;1273;97525;-63
2022/03/04 03:27:11;;;;;;;35.80;21.80;;;;;;;1.40;75.28;100641.16;88318;1274;87386;-64
2022/03/04 03:29:21;;;;;;;34.40;22.00;;;;;;;1.41;75.38;100645.34;88205;1273;93959;-64
2022/03/04 03:31:30;;;;;;;37.00;23.80;;;;;;;1.39;75.38;100646.70;88335;1274;78130;-75
2022/03/04 03:33:43;;;;;;;39.60;22.50;;;;;;;1.38;75.37;100644.13;88249;1273;83178;-76
2022/03/04 03:35:54;;;;;;;35.20;20.90;;;;;;;1.39;75.37;100644.05;88275;1273;97932;-64
2022/03/04 03:38:07;;;;;;;32.90;20.70;;;;;;;1.38;75.41;100650.69;87436;1273;1083593;-65
2022/03/04 03:40:20;;;;;;;31.50;20.10;;;;;;;1.41;75.45;100648.37;88271;1273;95118;-64
2022/03/04 03:42:30;;;;;;;34.00;19.60;;;;;;;1.41;75.65;100651.52;88268;1273;79455;-64
2022/03/04 03:44:43;;;;;;;33.20;19.60;;;;;;;1.44;75.78;100651.82;88289;1273;80844;-75
2022/03/04 03:46:53;;;;;;;32.00;19.20;;;;;;;1.47;75.79;100653.73;88267;1273;101289;-76
2022/03/04 03:49:05;;;;;;;33.80;20.30;;;;;;;1.48;75.82;100654.86;88289;1273;88852;-75
2022/03/04 03:51:15;;;;;;;26.40;14.40;;;;;;;1.49;75.92;100654.38;88260;1273;95405;-63
2022/03/04 03:53:25;;;;;;;28.50;18.70;;;;;;;1.53;75.92;100654.63;88287;1274;80327;-62
2022/03/04 03:55:36;;;;;;;32.60;18.60;;;;;;;1.55;75.98;100656.56;88231;1273;83075;-63
2022/03/04 03:57:49;;;;;;;29.10;18.30;;;;;;;1.57;75.95;100655.19;88272;1273;98942;-62
2022/03/04 03:59:59;;;;;;;28.40;18.00;;;;;;;1.60;76.16;100658.26;88338;1273;87782;-74
2022/03/04 04:02:08;;;;;;;30.60;18.90;;;;;;;1.63;76.04;100654.48;88302;1273;95564;-75
2022/03/04 04:04:19;;;;;;;30.60;20.30;;;;;;;1.67;76.02;100656.09;88320;1273;77702;-75
2022/03/04 04:06:28;;;;;;;30.50;19.00;;;;;;;1.68;76.07;100660.41;88307;1274;83537;-75
2022/03/04 04:08:41;;;;;;;32.20;19.70;;;;;;;1.67;76.08;100658.92;88178;1276;100046;-75
2022/03/04 04:10:53;;;;;;;26.70;17.90;;;;;;;1.66;76.07;100661.31;88264;1273;86857;-62
2022/03/04 04:13:03;;;;;;;30.00;19.10;;;;;;;1.61;76.23;100659.61;88275;1274;95043;-62
2022/03/04 04:15:12;;;;;;;27.60;18.20;;;;;;;1.60;76.18;100656.66;88300;1273;81259;-75
2022/03/04 04:17:21;;;;;;;29.40;19.10;;;;;;;1.59;76.12;100659.77;88319;1274;81817;-76
2022/03/04 04:19:31;;;;;;;28.30;17.20;;;;;;;1.60;76.24;100660.11;88256;1273;99123;-64
2022/03/04 04:21:43;;;;;;;28.20;16.80;;;;;;;1.61;76.21;100663.52;88248;1273;88326;-63
2022/03/04 04:23:52;;;;;;;27.10;17.20;;;;;;;1.64;76.21;100661.66;88260;1273;95575;-63
2022/03/04 04:26:06;;;;;;;27.30;16.90;;;;;;;1.65;76.26;100667.95;88326;1273;79053;-76
2022/03/04 04:28:17;;;;;;;25.70;15.30;;;;;;;1.66;76.33;100667.70;88321;1274;81517;-75
2022/03/04 04:30:26;;;;;;;24.60;14.80;;;;;;;1.68;76.40;100670.52;88309;1274;96664;-74
2022/03/04 04:32:36;;;;;;;26.20;14.80;;;;;;;1.71;76.32;100671.55;88339;1273;87154;-75
2022/03/04 04:34:47;;;;;;;22.20;14.40;;;;;;;1.71;76.44;100669.41;88304;1274;94879;-76
2022/03/04 04:36:57;;;;;;;28.00;16.50;;;;;;;1.74;76.55;100673.77;88273;1273;78517;-76
2022/03/04 04:39:09;;;;;;;24.40;15.30;;;;;;;1.75;76.46;100673.66;88301;1273;82520;-75
2022/03/04 04:41:19;;;;;;;26.30;17.20;;;;;;;1.79;76.50;100677.11;88241;1273;99910;-64
2022/03/04 04:43:28;;;;;;;27.00;15.50;;;;;;;1.82;76.43;100676.68;88284;1274;87271;-63
2022/03/04 04:45:38;;;;;;;26.50;15.50;;;;;;;1.85;76.48;100680.56;88286;1273;95328;-62
2022/03/04 04:47:47;;;;;;;26.60;18.00;;;;;;;1.85;76.47;100679.50;88281;1274;79201;-64
2022/03/04 04:49:56;;;;;;;26.60;16.10;;;;;;;1.81;76.45;100678.21;88276;1274;83415;-64
2022/03/04 04:52:10;;;;;;;28.30;17.80;;;;;;;1.82;76.44;100682.03;88280;1274;99217;-63
2022/03/04 04:54:17;;;;;;;;;;;;;;;1.85;76.48;100683.77;88228;1274;88342;-66
2022/03/04 04:56:26;;;;;;;25.60;15.80;;;;;;;1.84;76.47;100685.77;88258;1274;94048;-63
2022/03/04 04:58:38;;;;;;;25.40;15.10;;;;;;;1.85;76.51;100686.23;88292;1273;79922;-64
2022/03/04 05:00:53;;;;;;;24.30;13.30;;;;;;;1.83;76.52;100687.45;88290;1273;80302;-76
2022/03/04 05:03:03;;;;;;;22.30;14.00;;;;;;;1.82;76.62;100682.77;88244;1273;99417;-75
2022/03/04 05:05:13;;;;;;;23.10;14.40;;;;;;;1.82;76.66;100682.92;88281;1273;88551;-74
2022/03/04 05:07:26;;;;;;;22.30;13.40;;;;;;;1.81;76.76;100681.02;88258;1274;95189;-75
2022/03/04 05:09:35;;;;;;;25.50;14.40;;;;;;;1.85;76.94;100682.89;88221;1274;80487;-64
2022/03/04 05:11:46;;;;;;;22.50;12.90;;;;;;;1.85;76.78;100684.98;88274;1274;83856;-63
2022/03/04 05:13:55;;;;;;;21.00;14.00;;;;;;;1.88;76.87;100687.04;88276;1274;98787;-64
2022/03/04 05:16:05;;;;;;;22.00;14.30;;;;;;;1.89;76.88;100685.55;88284;1274;88880;-76
2022/03/04 05:18:15;;;;;;;22.10;14.80;;;;;;;1.90;76.92;100689.72;88289;1274;93868;-75
2022/03/04 05:20:24;;;;;;;20.00;13.20;;;;;;;1.91;76.93;100695.11;88267;1272;79147;-65
2022/03/04 05:22:34;;;;;;;21.80;14.30;;;;;;;1.97;76.90;100696.80;88298;1273;81268;-62
2022/03/04 05:24:46;;;;;;;23.10;14.70;;;;;;;2.04;76.96;100691.03;88283;1273;95700;-75
2022/03/04 05:26:55;;;;;;;25.10;15.40;;;;;;;2.03;76.98;100697.87;88243;1273;88857;-75
2022/03/04 05:29:06;;;;;;;30.30;17.30;;;;;;;2.00;76.98;100697.01;88198;1274;94960;-75
2022/03/04 05:31:15;;;;;;;30.30;17.00;;;;;;;2.04;76.98;100701.17;88237;1273;76620;-63
2022/03/04 05:33:25;;;;;;;34.90;19.90;;;;;;;2.00;77.01;100704.85;88241;1273;83302;-63
2022/03/04 05:35:37;;;;;;;29.80;17.00;;;;;;;1.98;76.96;100706.97;88224;1275;99342;-76
2022/03/04 05:37:47;;;;;;;27.30;17.40;;;;;;;1.96;77.04;100705.20;88210;1274;88959;-77
2022/03/04 05:39:57;;;;;;;35.50;19.80;;;;;;;1.94;77.10;100706.96;88272;1273;93103;-65
2022/03/04 05:42:09;;;;;;;36.40;21.10;;;;;;;1.92;77.11;100708.38;88104;1276;81560;-66
2022/03/04 05:44:18;;;;;;;31.60;19.10;;;;;;;1.91;77.20;100711.83;88293;1274;79818;-66
2022/03/04 05:46:28;;;;;;;30.00;17.10;;;;;;;1.89;77.41;100711.87;88310;1273;96938;-77
2022/03/04 05:48:42;;;;;;;36.10;20.00;;;;;;;1.90;77.41;100713.36;88347;1274;88817;-76
2022/03/04 05:50:52;;;;;;;41.50;22.40;;;;;;;1.89;77.62;100714.83;88311;1274;95523;-67
2022/03/04 05:53:04;;;;;;;37.20;21.30;;;;;;;1.92;77.65;100718.69;88273;1274;81395;-65
2022/03/04 05:55:16;;;;;;;23.80;14.10;;;;;;;1.95;77.62;100721.45;88264;1274;81694;-65
2022/03/04 05:57:25;;;;;;;31.50;19.20;;;;;;;1.96;77.85;100721.74;88287;1274;99577;-66
2022/03/04 05:59:49;;;;;;;48.70;24.80;;;;;;;1.99;77.91;100722.67;88308;1274;89253;-64
2022/03/04 06:01:57;;;;;;;;;;;;;;;2.01;77.86;100725.39;88296;1274;95718;-63
2022/03/04 06:04:07;;;;;;;41.40;22.10;;;;;;;2.01;77.89;100723.26;88287;1274;80250;-65
2022/03/04 06:06:21;;;;;;;35.90;20.20;;;;;;;2.03;77.88;100729.45;88309;1274;80695;-64
2022/03/04 06:08:30;;;;;;;26.90;15.70;;;;;;;2.05;77.98;100730.73;88293;1274;97325;-79
2022/03/04 06:10:39;;;;;;;29.00;17.50;;;;;;;2.04;77.98;100733.27;88303;1273;89133;-78
2022/03/04 06:12:49;;;;;;;36.10;20.80;;;;;;;2.06;77.93;100736.91;88258;1274;95099;-77
2022/03/04 06:15:02;;;;;;;33.60;18.30;;;;;;;2.08;77.94;100739.55;88310;1274;76985;-65
2022/03/04 06:17:12;;;;;;;24.90;16.20;;;;;;;2.04;78.03;100737.92;88271;1273;80901;-65
2022/03/04 06:19:23;;;;;;;35.20;20.60;;;;;;;2.02;78.12;100741.60;88257;1274;99542;-64
2022/03/04 06:21:33;;;;;;;30.90;17.90;;;;;;;1.98;77.99;100744.43;88256;1274;88684;-77
2022/03/04 06:23:45;;;;;;;24.40;15.40;;;;;;;1.93;78.06;100748.80;88296;1274;93912;-75
2022/03/04 06:25:57;;;;;;;31.60;17.70;;;;;;;1.87;77.99;100748.39;88265;1274;79076;-75
2022/03/04 06:28:08;;;;;;;33.50;18.70;;;;;;;1.87;78.00;100753.54;88274;1273;81817;-73
2022/03/04 06:30:18;;;;;;;34.90;18.80;;;;;;;1.85;78.13;100755.48;88254;1274;97947;-66
2022/03/04 06:32:27;;;;;;;35.60;20.00;;;;;;;1.84;78.11;100756.43;88274;1274;89207;-67
2022/03/04 06:34:37;;;;;;;40.30;21.40;;;;;;;1.86;78.18;100761.76;88247;1274;93422;-76
2022/03/04 06:36:47;;;;;;;37.70;19.40;;;;;;;1.90;78.20;100764.67;88304;1274;80537;-78
2022/03/04 06:38:56;;;;;;;40.80;21.60;;;;;;;1.90;78.26;100764.30;88365;1274;81917;-83
2022/03/04 06:41:06;;;;;;;32.20;19.60;;;;;;;1.89;78.31;100765.45;88286;1274;98520;-76
2022/03/04 06:43:20;;;;;;;31.20;19.40;;;;;;;1.91;78.34;100768.67;88292;1274;87744;-75
2022/03/04 06:45:29;;;;;;;30.30;17.40;;;;;;;1.91;78.48;100772.25;88319;1274;95465;-70
2022/03/04 06:47:42;;;;;;;28.20;17.50;;;;;;;1.93;78.35;100774.02;88269;1275;79691;-70
2022/03/04 06:49:51;;;;;;;24.50;15.20;;;;;;;1.95;78.48;100779.15;88214;1274;82581;-70
2022/03/04 06:52:01;;;;;;;26.30;17.00;;;;;;;1.98;78.42;100772.92;88273;1274;98422;-68
2022/03/04 06:54:13;;;;;;;22.20;14.00;;;;;;;2.00;78.34;100774.82;88294;1274;88444;-69
2022/03/04 06:56:22;;;;;;;26.00;16.40;;;;;;;2.01;78.40;100775.84;88258;1273;95072;-69
2022/03/04 06:58:34;;;;;;;24.10;15.00;;;;;;;2.04;78.37;100775.87;88285;1274;79137;-69
2022/03/04 07:00:45;;;;;;;23.10;14.70;;;;;;;2.02;78.43;100773.91;88303;1274;79442;-75
2022/03/04 07:02:57;;;;;;;19.90;13.10;;;;;;;1.98;78.50;100773.57;88374;1274;97555;-71
2022/03/04 07:05:10;;;;;;;19.20;13.90;;;;;;;1.99;78.47;100779.01;88344;1274;89132;-74
2022/03/04 07:07:20;;;;;;;23.40;14.70;;;;;;;1.98;78.47;100780.66;88352;1273;94405;-75
2022/03/04 07:09:30;;;;;;;23.20;15.20;;;;;;;1.97;78.47;100783.91;88256;1274;79939;-85
2022/03/04 07:11:43;;;;;;;18.40;13.50;;;;;;;1.95;78.61;100783.23;88457;1274;81900;-81
2022/03/04 07:13:56;;;;;;;35.10;20.60;;;;;;;2.00;78.67;100780.66;88408;1274;98234;-82
2022/03/04 07:16:06;;;;;;;58.20;31.70;;;;;;;2.04;78.63;100781.08;88338;1273;88401;-73
2022/03/04 07:18:16;;;;;;;168.80;89.20;;;;;;;2.06;78.64;100786.71;88291;1274;93977;-70
2022/03/04 07:20:26;;;;;;;87.50;55.30;;;;;;;2.10;78.72;100785.70;88225;1274;79479;-72
2022/03/04 07:22:38;;;;;;;58.40;38.10;;;;;;;2.12;78.75;100787.30;88290;1274;80749;-71
2022/03/04 07:24:48;;;;;;;52.00;36.30;;;;;;;2.17;78.92;100791.89;88228;1274;99552;-79
2022/03/04 07:26:58;;;;;;;36.20;25.60;;;;;;;2.26;78.94;100793.83;88404;1274;89102;-78
2022/03/04 07:29:07;;;;;;;97.70;50.50;;;;;;;2.32;78.96;100798.29;88336;1274;94413;-79
2022/03/04 07:31:19;;;;;;;34.40;19.40;;;;;;;2.35;78.99;100800.48;88270;1274;79244;-72
2022/03/04 07:33:28;;;;;;;80.70;36.40;;;;;;;2.40;79.00;100798.45;88248;1274;80712;-70
2022/03/04 07:35:42;;;;;;;72.70;33.50;;;;;;;2.44;79.14;100796.56;88299;1274;98693;-70
2022/03/04 07:37:51;;;;;;;115.60;54.70;;;;;;;2.50;79.08;100799.40;88272;1273;89235;-69
2022/03/04 07:40:00;;;;;;;124.10;54.40;;;;;;;2.57;79.05;100807.17;88322;1274;96183;-68
2022/03/04 07:42:11;;;;;;;61.00;31.90;;;;;;;2.62;79.03;100809.39;88319;1274;80285;-80
2022/03/04 07:44:23;;;;;;;40.60;23.60;;;;;;;2.68;79.02;100809.11;88305;1274;81189;-79
2022/03/04 07:46:33;;;;;;;58.30;30.20;;;;;;;2.74;78.98;100809.47;88269;1274;97740;-79
2022/03/04 07:48:45;;;;;;;72.00;37.60;;;;;;;2.73;79.07;100814.52;88277;1274;89398;-78
2022/03/04 07:50:55;;;;;;;71.60;38.30;;;;;;;2.74;79.12;100814.04;88288;1274;95091;-65
2022/03/04 07:53:05;;;;;;;26.80;17.30;;;;;;;2.81;79.01;100814.73;88290;1274;79719;-67
2022/03/04 07:55:17;;;;;;;64.40;34.50;;;;;;;2.81;79.07;100808.89;88346;1274;81334;-74
2022/03/04 07:57:29;;;;;;;33.40;21.40;;;;;;;2.79;79.07;100816.13;88313;1274;98041;-75
2022/03/04 07:59:39;;;;;;;60.30;31.90;;;;;;;2.84;78.97;100815.16;88296;1274;88130;-74
2022/03/04 08:01:49;;;;;;;68.60;38.70;;;;;;;2.88;79.06;100821.11;88280;1274;95157;-75
2022/03/04 08:03:58;;;;;;;87.70;47.90;;;;;;;2.90;79.04;100818.75;88304;1274;79242;-75
2022/03/04 08:06:08;;;;;;;29.90;18.60;;;;;;;2.99;79.05;100820.50;88261;1274;82742;-66
2022/03/04 08:08:17;;;;;;;64.50;36.20;;;;;;;3.04;79.07;100819.52;88254;1274;98762;-66
2022/03/04 08:10:26;;;;;;;43.50;25.40;;;;;;;3.04;78.90;100821.52;88287;1274;87658;-67
2022/03/04 08:12:39;;;;;;;65.30;37.50;;;;;;;3.07;78.91;100825.69;88269;1274;93022;-66
2022/03/04 08:14:49;;;;;;;59.20;33.30;;;;;;;3.09;79.04;100825.88;88265;1274;80321;-67
2022/03/04 08:16:58;;;;;;;16.90;11.90;;;;;;;3.15;78.95;100830.17;88325;1274;82759;-67
2022/03/04 08:19:07;;;;;;;38.90;24.70;;;;;;;3.19;79.01;100830.15;88287;1274;98444;-67
2022/03/04 08:21:18;;;;;;;25.50;17.40;;;;;;;3.22;78.95;100828.66;88342;1274;87675;-67
2022/03/04 08:23:32;;;;;;;17.20;11.20;;;;;;;3.25;78.75;100831.96;88283;1274;95887;-66
2022/03/04 08:25:43;;;;;;;33.30;21.20;;;;;;;3.35;78.69;100833.20;88319;1274;77281;-77
2022/03/04 08:27:53;;;;;;;33.90;20.90;;;;;;;3.41;78.67;100832.15;88328;1274;81679;-77
2022/03/04 08:30:03;;;;;;;52.40;29.00;;;;;;;3.42;78.68;100835.08;88388;1274;97820;-67
2022/03/04 08:32:13;;;;;;;36.10;21.60;;;;;;;3.36;78.66;100833.08;88307;1272;86144;-68
2022/03/04 08:34:23;;;;;;;19.30;12.90;;;;;;;3.35;78.67;100840.14;88271;1274;93131;-77
2022/03/04 08:36:36;;;;;;;29.60;18.40;;;;;;;3.34;78.54;100844.46;88272;1274;79368;-69
2022/03/04 08:38:48;;;;;;;18.40;12.50;;;;;;;3.32;78.64;100847.14;88298;1274;81265;-66
2022/03/04 08:41:02;;;;;;;21.80;14.00;;;;;;;3.25;78.63;100847.92;88310;1274;96243;-68
2022/03/04 08:43:14;;;;;;;16.80;12.00;;;;;;;3.30;78.52;100852.98;88287;1272;88194;-67
2022/03/04 08:45:27;;;;;;;19.00;12.90;;;;;;;3.32;78.55;100851.30;88306;1274;95255;-77
2022/03/04 08:47:36;;;;;;;61.30;34.10;;;;;;;3.26;78.60;100853.41;88300;1274;80723;-76
2022/03/04 08:49:49;;;;;;;22.80;14.50;;;;;;;3.27;78.56;100855.61;88303;1274;80139;-76
2022/03/04 08:51:59;;;;;;;19.70;12.40;;;;;;;3.30;78.76;100856.40;88310;1274;97876;-76
2022/03/04 08:54:11;;;;;;;14.10;11.40;;;;;;;3.35;78.58;100856.84;88293;1273;86114;-77
2022/03/04 08:56:21;;;;;;;19.50;13.20;;;;;;;3.42;78.67;100857.30;88281;1273;95434;-75
2022/03/04 08:58:30;;;;;;;30.70;19.10;;;;;;;3.44;78.74;100857.34;88250;1272;81437;-76
2022/03/04 09:00:39;;;;;;;33.70;21.20;;;;;;;3.48;78.84;100859.08;88340;1274;81605;-76
2022/03/04 09:02:48;;;;;;;17.20;11.00;;;;;;;3.56;78.63;100860.33;88277;1274;99362;-76
2022/03/04 09:04:59;;;;;;;14.70;11.00;;;;;;;3.63;78.31;100863.48;88309;1273;85854;-77
2022/03/04 09:07:09;;;;;;;16.60;10.90;;;;;;;3.65;78.19;100864.55;88292;1274;94367;-76
2022/03/04 09:09:19;;;;;;;14.30;10.60;;;;;;;3.69;78.23;100865.61;88244;1273;79786;-76
2022/03/04 09:11:28;;;;;;;13.80;11.60;;;;;;;3.71;78.10;100861.87;88287;1274;81653;-67
2022/03/04 09:13:37;;;;;;;20.60;14.20;;;;;;;3.65;77.99;100862.41;88288;1274;98477;-68
2022/03/04 09:15:50;;;;;;;17.70;11.60;;;;;;;3.63;78.05;100864.02;88313;1273;89762;-77
2022/03/04 09:18:00;;;;;;;58.80;27.20;;;;;;;3.62;77.99;100866.75;88319;1273;94665;-77
2022/03/04 09:20:16;;;;;;;35.00;21.10;;;;;;;3.50;78.09;100867.83;88259;1273;80222;-70
2022/03/04 09:22:25;;;;;;;13.30;9.70;;;;;;;3.46;78.19;100869.29;88307;1273;82675;-68
2022/03/04 09:24:35;;;;;;;13.60;9.20;;;;;;;3.49;78.20;100869.73;88300;1273;99540;-68
2022/03/04 09:26:45;;;;;;;13.30;10.60;;;;;;;3.50;78.05;100872.64;88311;1271;88319;-68
2022/03/04 09:28:55;;;;;;;21.30;14.80;;;;;;;3.46;78.21;100873.86;88260;1273;95898;-66
2022/03/04 09:31:04;;;;;;;15.70;11.50;;;;;;;3.47;78.28;100874.48;88281;1274;80706;-69
2022/03/04 09:33:14;;;;;;;24.20;16.50;;;;;;;3.51;78.30;100875.05;88320;1273;82488;-76
2022/03/04 09:35:27;;;;;;;13.20;8.20;;;;;;;3.57;78.27;100871.48;88292;1273;96889;-76
2022/03/04 09:37:37;;;;;;;12.00;8.10;;;;;;;3.62;78.17;100876.09;88290;1274;87504;-77
2022/03/04 09:39:47;;;;;;;37.60;23.00;;;;;;;3.67;78.27;100876.34;88281;1272;94596;-67
2022/03/04 09:42:01;;;;;;;16.90;9.70;;;;;;;3.69;78.09;100877.39;88277;1273;80962;-67
2022/03/04 09:44:15;;;;;;;25.90;16.60;;;;;;;3.71;78.23;100879.85;88308;1273;83026;-68
2022/03/04 09:46:26;;;;;;;15.00;11.40;;;;;;;3.78;78.28;100884.05;88300;1271;97542;-68
2022/03/04 09:48:40;;;;;;;21.00;15.00;;;;;;;3.78;78.20;100886.88;88252;1273;88388;-67
2022/03/04 09:50:51;;;;;;;29.30;23.00;;;;;;;3.83;78.15;100885.89;88210;1273;95094;-73
2022/03/04 09:53:02;;;;;;;29.40;26.20;;;;;;;3.79;78.01;100882.72;88303;1274;78148;-74
2022/03/04 09:55:14;;;;;;;17.90;13.10;;;;;;;3.79;77.94;100884.52;88309;1273;83500;-70
2022/03/04 09:57:24;;;;;;;20.00;16.40;;;;;;;3.79;77.99;100882.69;88206;1274;99058;-69
2022/03/04 09:59:36;;;;;;;23.60;18.30;;;;;;;3.77;77.88;100883.81;88293;1274;87927;-70